Time;durP1;ratioP1;P1;durP2;ratioP2;P2;SDS_P1;SDS_P2;PMS_P1;PMS_P2;Temp;Humidity;BMP_temperature;BMP_pressure;BME280_temperature;BME280_humidity;BME280_pressure;Samples;Min_cycle;Max_cycle;Signal;HPM_P1;HPM_P2
2022/05/10 00:07:32;;;;;;;3.00;1.33;;;;;;;9.95;59.40;100804.75;31343174;28;20418;-77
2022/05/10 00:22:34;;;;;;;3.47;1.50;;;;;;;9.66;60.31;100804.94;31341064;28;20132;-76
2022/05/10 00:37:36;;;;;;;6.53;1.50;;;;;;;9.50;60.26;100812.75;31325165;28;20124;-77
2022/05/10 00:52:57;;;;;;;1.93;1.27;;;;;;;9.27;58.83;100815.13;31308564;28;20057;-77
2022/05/10 01:08:15;;;;;;;4.23;1.33;;;;;;;9.15;57.88;100803.56;31295662;28;20080;-76
2022/05/10 01:23:35;;;;;;;2.80;1.40;;;;;;;9.08;58.74;100798.16;31325573;28;20495;-77
2022/05/10 01:38:46;;;;;;;2.07;1.37;;;;;;;9.03;58.67;100806.69;31306362;28;20505;-77
2022/05/10 01:53:48;;;;;;;1.43;1.10;;;;;;;8.73;58.29;100800.97;31327909;28;20053;-77
2022/05/10 02:08:59;;;;;;;3.40;1.53;;;;;;;8.50;59.01;100802.09;31327771;28;20056;-76
2022/05/10 02:24:45;;;;;;;4.73;2.10;;;;;;;8.40;59.24;100804.81;31310753;28;20432;-76
2022/05/10 02:39:47;;;;;;;5.77;2.13;;;;;;;8.41;59.25;100803.66;31312017;28;20056;-76
2022/05/10 02:55:11;;;;;;;3.53;2.10;;;;;;;8.59;58.56;100820.66;31326244;28;20066;-78
2022/05/10 03:10:12;;;;;;;5.60;1.70;;;;;;;8.88;57.42;100833.03;31335795;28;20139;-76
2022/05/10 03:25:15;;;;;;;3.93;2.07;;;;;;;9.07;56.50;100833.78;31314559;28;20048;-77
2022/05/10 03:40:17;;;;;;;2.83;2.10;;;;;;;9.22;56.15;100851.53;31356086;28;20132;-76
2022/05/10 03:55:22;;;;;;;3.87;2.13;;;;;;;9.63;56.29;100861.88;31319158;28;20053;-77
2022/05/10 04:10:24;;;;;;;5.93;3.00;;;;;;;10.14;54.79;100856.59;31325637;28;20055;-78
2022/05/10 04:25:26;;;;;;;3.13;1.73;;;;;;;10.96;53.65;100860.66;31315398;28;20483;-77
2022/05/10 04:55:49;;;;;;;3.07;1.97;;;;;;;12.39;49.49;100869.47;31327004;28;20055;-77
2022/05/10 05:10:53;;;;;;;9.13;3.53;;;;;;;13.18;47.37;100866.25;31338749;28;20049;-77
2022/05/10 05:25:55;;;;;;;14.80;5.77;;;;;;;13.90;45.02;100869.91;31342864;28;20409;-78
2022/05/10 05:40:57;;;;;;;9.63;3.43;;;;;;;14.56;42.23;100868.81;31340208;28;20082;-77
2022/05/10 05:56:08;;;;;;;12.53;4.87;;;;;;;15.00;38.89;100861.88;31341032;28;20060;-76
2022/05/10 06:11:10;;;;;;;13.57;4.93;;;;;;;15.80;36.14;100862.06;31347468;28;20065;-76
2022/05/10 06:26:12;;;;;;;7.50;2.63;;;;;;;16.38;32.84;100853.63;31324915;28;20055;-76
2022/05/10 06:41:14;;;;;;;2.33;1.23;;;;;;;16.66;29.16;100852.75;31348421;28;20051;-76
2022/05/10 06:56:18;;;;;;;1.95;0.98;;;;;;;17.40;30.07;100854.16;31333810;28;20099;-78
2022/05/10 07:11:20;;;;;;;3.17;0.90;;;;;;;18.34;29.42;100836.50;31310400;28;20065;-77
2022/05/10 07:26:21;;;;;;;1.13;1.02;;;;;;;18.50;29.05;100841.72;31360088;28;20041;-76
2022/05/10 07:41:24;;;;;;;1.73;0.80;;;;;;;19.08;26.03;100827.13;31303232;28;20502;-76
2022/05/10 07:56:26;;;;;;;1.50;1.00;;;;;;;19.47;24.84;100830.16;31209653;28;20156;-76
2022/05/10 08:11:28;;;;;;;1.35;0.52;;;;;;;19.57;24.57;100806.91;31234780;28;20057;-75
2022/05/10 08:26:36;;;;;;;1.25;0.80;;;;;;;18.41;26.43;100811.47;31218459;28;20050;-75
2022/05/10 08:41:48;;;;;;;2.65;1.00;;;;;;;18.13;26.29;100801.63;31214049;28;20084;-77
2022/05/10 08:56:58;;;;;;;1.67;1.10;;;;;;;17.99;27.32;100789.97;31315956;28;20422;-75
2022/05/10 09:12:15;;;;;;;5.10;1.30;;;;;;;19.93;24.06;100778.47;31295481;28;20082;-77
2022/05/10 09:27:20;;;;;;;3.58;1.20;;;;;;;19.78;25.24;100772.88;31322931;28;20072;-79
2022/05/10 09:42:41;;;;;;;7.57;1.23;;;;;;;20.63;22.92;100757.69;31324690;28;20128;-84
2022/05/10 09:57:43;;;;;;;5.35;1.00;;;;;;;19.17;23.40;100746.53;31329941;28;20048;-73
2022/05/10 10:12:46;;;;;;;1.90;1.20;;;;;;;21.38;22.53;100709.59;31323602;28;20059;-83
2022/05/10 10:27:50;;;;;;;;;;;;;;;22.38;20.86;100704.72;31346664;28;20052;-84
2022/05/10 10:43:08;;;;;;;7.10;3.47;;;;;;;23.43;19.19;100691.13;31359524;28;19943;-86
2022/05/10 10:58:35;;;;;;;3.03;2.03;;;;;;;21.43;20.49;100679.31;31357737;28;20073;-83
2022/05/10 11:13:48;;;;;;;1.70;1.00;;;;;;;23.97;20.10;100671.06;31320767;28;20059;-83
2022/05/10 11:28:54;;;;;;;2.88;1.10;;;;;;;22.03;20.75;100647.50;31356495;28;20148;-78
2022/05/10 11:44:02;;;;;;;3.75;1.23;;;;;;;20.45;21.31;100624.69;31328185;28;20052;-77
2022/05/10 11:59:09;;;;;;;5.63;2.75;;;;;;;18.66;23.64;100604.97;31346011;28;20059;-76
2022/05/10 12:30:29;;;;;;;2.00;1.23;;;;;;;18.35;24.45;100579.66;31260074;28;20107;-74
2022/05/10 12:45:53;;;;;;;2.72;1.02;;;;;;;18.10;24.10;100569.75;31320358;28;20426;-84
2022/05/10 13:00:59;;;;;;;2.67;1.20;;;;;;;18.35;24.94;100552.19;31314202;28;20067;-81
2022/05/10 13:16:01;;;;;;;5.20;1.10;;;;;;;18.01;24.96;100539.53;31306192;28;20390;-79
2022/05/10 13:31:17;;;;;;;2.08;1.20;;;;;;;17.90;25.38;100529.03;31334711;28;20056;-80
2022/05/10 13:46:40;;;;;;;1.75;1.27;;;;;;;18.05;25.20;100513.44;31326511;28;20126;-78
2022/05/10 14:01:47;;;;;;;2.10;1.15;;;;;;;17.67;25.39;100499.44;31302978;28;20055;-78
2022/05/10 14:16:50;;;;;;;2.65;1.40;;;;;;;17.43;25.55;100485.50;31310311;28;20045;-79
2022/05/10 14:32:04;;;;;;;3.90;1.48;;;;;;;17.22;25.39;100465.22;31306565;28;20064;-80
2022/05/10 14:47:34;;;;;;;3.73;1.43;;;;;;;17.05;26.56;100461.19;31313611;28;20056;-78
2022/05/10 15:02:38;;;;;;;3.42;1.33;;;;;;;16.93;26.20;100453.84;31329925;28;20132;-80
2022/05/10 15:33:00;;;;;;;3.92;1.50;;;;;;;16.60;26.49;100432.41;31336347;28;20056;-80
2022/05/10 15:48:05;;;;;;;6.50;1.50;;;;;;;16.26;27.10;100432.56;31338077;28;20147;-79
2022/05/10 16:03:10;;;;;;;2.55;1.58;;;;;;;16.06;27.26;100421.19;31365023;28;20085;-78
2022/05/10 16:18:19;;;;;;;4.78;1.48;;;;;;;15.92;27.59;100423.22;31298937;28;20052;-78
2022/05/10 16:33:26;;;;;;;4.45;1.63;;;;;;;15.64;28.25;100430.50;31318019;28;20150;-81
2022/05/10 16:48:29;;;;;;;2.10;1.20;;;;;;;15.20;28.48;100413.22;31286112;28;20054;-83
2022/05/10 17:03:31;;;;;;;5.23;1.80;;;;;;;14.84;29.83;100413.66;31186734;28;20054;-87
2022/05/10 17:18:33;;;;;;;4.20;1.90;;;;;;;14.42;30.92;100425.88;31183302;28;20050;-81
2022/05/10 17:33:37;;;;;;;4.67;2.47;;;;;;;14.03;31.58;100427.78;31213972;28;20064;-81
2022/05/10 17:48:40;;;;;;;8.40;2.80;;;;;;;13.74;32.21;100422.34;31242637;28;20144;-78
2022/05/10 18:03:43;;;;;;;3.90;2.03;;;;;;;13.53;32.95;100423.69;31313687;28;20144;-77
2022/05/10 18:18:46;;;;;;;4.23;1.57;;;;;;;13.36;33.15;100418.72;31333331;28;20049;-81
2022/05/10 18:33:48;;;;;;;5.03;1.50;;;;;;;13.30;33.16;100421.97;31325790;28;20092;-83
2022/05/10 18:48:50;;;;;;;5.27;2.10;;;;;;;13.26;32.75;100412.34;31343131;28;20049;-81
2022/05/10 19:03:52;;;;;;;4.47;1.53;;;;;;;13.14;33.24;100402.88;31340666;28;20139;-80
2022/05/10 19:18:54;;;;;;;8.13;2.33;;;;;;;13.05;33.84;100396.50;31348405;28;20067;-81
2022/05/10 19:33:56;;;;;;;4.70;2.00;;;;;;;12.87;34.66;100394.22;31347593;28;20155;-81
2022/05/10 19:48:59;;;;;;;4.43;2.13;;;;;;;12.72;35.49;100393.03;31322497;28;20095;-80
2022/05/10 20:19:27;;;;;;;12.30;2.87;;;;;;;12.45;34.93;100380.41;31356322;28;20065;-79
2022/05/10 20:34:30;;;;;;;5.60;2.03;;;;;;;12.38;35.16;100379.81;31299907;28;20053;-81
2022/05/10 20:49:32;;;;;;;2.37;1.37;;;;;;;12.21;35.36;100370.84;31343039;28;20136;-82
2022/05/10 21:04:35;;;;;;;7.93;2.27;;;;;;;11.88;35.61;100375.44;31343688;28;20049;-83
2022/05/10 21:19:37;;;;;;;7.23;1.93;;;;;;;11.46;36.90;100371.59;31364627;28;20084;-83
2022/05/10 21:34:40;;;;;;;6.37;2.20;;;;;;;11.16;37.62;100365.13;31357229;28;20494;-83
2022/05/10 21:50:10;;;;;;;5.97;2.97;;;;;;;10.85;38.66;100347.47;31307533;28;20140;-82
2022/05/10 22:05:13;;;;;;;3.10;2.03;;;;;;;10.76;38.82;100364.28;31335087;28;20073;-83
2022/05/10 22:20:15;;;;;;;5.63;2.00;;;;;;;10.68;39.17;100351.97;31372154;28;20056;-83
2022/05/10 22:35:17;;;;;;;4.37;2.40;;;;;;;10.56;39.06;100353.34;31365877;28;20455;-82
2022/05/10 22:50:22;;;;;;;4.53;1.90;;;;;;;10.50;39.29;100349.56;31338568;28;20056;-82
2022/05/10 23:05:24;;;;;;;3.87;2.20;;;;;;;10.48;39.21;100362.75;31352861;28;20532;-82
2022/05/10 23:20:26;;;;;;;3.80;2.13;;;;;;;10.34;39.94;100357.56;31334844;28;20072;-82
2022/05/10 23:35:28;;;;;;;4.57;2.30;;;;;;;10.22;40.27;100341.84;31321449;28;20049;-82
2022/05/10 23:50:36;;;;;;;5.53;2.17;;;;;;;9.99;41.40;100339.03;31322681;28;20057;-83
